createdAt,value
2018-03-11T00:00:50.161Z,12.67
2018-03-11T00:03:17.613Z,15.80
2018-03-11T00:05:45.223Z,17.00
2018-03-11T00:08:12.668Z,15.20
2018-03-11T00:10:40.114Z,15.13
2018-03-11T00:13:07.577Z,14.90
2018-03-11T00:15:35.065Z,16.07
2018-03-11T00:18:02.545Z,15.13
2018-03-11T00:20:30.005Z,15.23
2018-03-11T00:22:57.453Z,16.90
2018-03-11T00:25:24.928Z,16.63
2018-03-11T00:27:52.377Z,15.83
2018-03-11T00:30:19.946Z,16.47
2018-03-11T00:32:47.388Z,17.20
2018-03-11T00:35:14.857Z,21.30
2018-03-11T00:37:42.321Z,21.17
2018-03-11T00:40:09.769Z,17.00
2018-03-11T00:42:37.281Z,14.00
2018-03-11T00:45:04.746Z,14.30
2018-03-11T00:47:32.185Z,12.50
2018-03-11T00:49:59.665Z,9.73
2018-03-11T00:52:27.141Z,13.50
2018-03-11T00:54:54.611Z,10.83
2018-03-11T00:57:22.050Z,11.80
2018-03-11T00:59:49.497Z,13.13
2018-03-11T01:02:16.965Z,15.20
2018-03-11T01:04:44.429Z,16.17
2018-03-11T01:07:11.914Z,14.90
2018-03-11T01:09:39.357Z,19.20
2018-03-11T01:12:06.944Z,20.57
2018-03-11T01:14:34.430Z,17.57
2018-03-11T01:17:01.873Z,17.73
2018-03-11T01:19:29.348Z,17.00
2018-03-11T01:21:56.798Z,19.27
2018-03-11T01:24:24.249Z,18.67
2018-03-11T01:26:51.709Z,17.57
2018-03-11T01:29:19.168Z,21.17
2018-03-11T01:31:46.774Z,20.67
2018-03-11T01:34:14.242Z,19.83
2018-03-11T01:36:41.689Z,20.87
2018-03-11T01:39:09.168Z,20.00
2018-03-11T01:41:36.630Z,20.17
2018-03-11T01:44:04.245Z,27.90
2018-03-11T01:46:31.696Z,21.83
2018-03-11T01:48:59.147Z,21.70
2018-03-11T01:51:26.638Z,19.70
2018-03-11T01:53:54.079Z,22.20
2018-03-11T01:56:21.781Z,19.10
2018-03-11T01:58:49.234Z,19.13
2018-03-11T02:01:16.681Z,21.63
2018-03-11T02:03:44.147Z,19.10
2018-03-11T02:06:11.593Z,20.60
2018-03-11T02:08:39.336Z,23.47
2018-03-11T02:11:06.798Z,26.77
2018-03-11T02:13:34.237Z,22.93
2018-03-11T02:16:01.722Z,28.80
2018-03-11T02:18:29.174Z,22.80
2018-03-11T02:20:56.881Z,24.90
2018-03-11T02:23:24.328Z,23.90
2018-03-11T02:25:51.875Z,21.57
2018-03-11T02:28:19.354Z,28.80
2018-03-11T02:30:46.866Z,25.20
2018-03-11T02:33:14.362Z,21.40
2018-03-11T02:35:41.845Z,20.80
2018-03-11T02:38:09.308Z,24.57
2018-03-11T02:40:36.776Z,18.83
2018-03-11T02:43:04.226Z,19.77
2018-03-11T02:45:31.901Z,20.07
2018-03-11T02:47:59.349Z,18.90
2018-03-11T02:50:26.795Z,19.10
2018-03-11T02:52:54.259Z,19.80
2018-03-11T02:55:21.702Z,23.33
2018-03-11T02:57:49.177Z,20.67
2018-03-11T03:00:16.669Z,28.30
2018-03-11T03:02:44.122Z,20.70
2018-03-11T03:05:11.581Z,20.00
2018-03-11T03:07:39.026Z,21.20
2018-03-11T03:10:06.503Z,23.17
2018-03-11T03:12:33.958Z,24.47
2018-03-11T03:15:01.426Z,20.07
2018-03-11T03:17:28.893Z,24.03
2018-03-11T03:19:56.341Z,33.10
2018-03-11T03:22:24.291Z,22.83
2018-03-11T03:24:51.738Z,22.40
2018-03-11T03:27:19.204Z,21.30
2018-03-11T03:29:46.669Z,21.07
2018-03-11T03:32:14.126Z,23.93
2018-03-11T03:34:41.626Z,21.13
2018-03-11T03:37:09.074Z,20.13
2018-03-11T03:39:36.516Z,22.73
2018-03-11T03:42:03.981Z,23.67
2018-03-11T03:44:31.442Z,21.30
2018-03-11T03:46:59.241Z,23.60
2018-03-11T03:49:26.680Z,23.60
2018-03-11T03:51:54.137Z,22.80
2018-03-11T03:54:21.601Z,20.63
2018-03-11T03:56:49.041Z,21.63
2018-03-11T03:59:16.517Z,22.10
2018-03-11T04:01:43.965Z,22.77
2018-03-11T04:04:11.409Z,20.13
2018-03-11T04:06:38.890Z,20.63
2018-03-11T04:09:06.337Z,20.70
2018-03-11T04:11:33.813Z,21.60
2018-03-11T04:14:01.270Z,19.43
2018-03-11T04:16:28.709Z,20.33
2018-03-11T04:18:56.185Z,19.23
2018-03-11T04:21:23.641Z,21.27
2018-03-11T04:23:51.286Z,19.90
2018-03-11T04:26:18.724Z,20.30
2018-03-11T04:28:46.166Z,19.27
2018-03-11T04:31:13.645Z,19.57
2018-03-11T04:33:41.085Z,19.27
2018-03-11T04:36:08.589Z,17.43
2018-03-11T04:38:36.033Z,20.37
2018-03-11T04:41:03.488Z,18.73
2018-03-11T04:43:30.954Z,19.77
2018-03-11T04:45:58.417Z,18.00
2018-03-11T04:48:25.901Z,18.53
2018-03-11T04:50:53.369Z,19.83
2018-03-11T04:53:20.810Z,22.17
2018-03-11T04:55:48.274Z,19.00
2018-03-11T04:58:15.719Z,20.63
2018-03-11T05:00:43.491Z,17.87
2018-03-11T05:03:10.942Z,19.67
2018-03-11T05:05:38.381Z,19.20
2018-03-11T05:08:05.852Z,17.97
2018-03-11T05:10:33.294Z,18.63
2018-03-11T05:13:00.785Z,20.43
2018-03-11T05:15:28.230Z,19.63
2018-03-11T05:17:55.678Z,20.90
2018-03-11T05:20:23.160Z,19.17
2018-03-11T05:22:50.601Z,20.70
2018-03-11T05:25:18.085Z,20.73
2018-03-11T05:27:46.062Z,20.00
2018-03-11T05:30:13.713Z,19.73
2018-03-11T05:32:41.182Z,21.00
2018-03-11T05:35:08.637Z,20.63
2018-03-11T05:37:36.129Z,20.07
2018-03-11T05:40:03.585Z,19.60
2018-03-11T05:42:31.049Z,21.60
2018-03-11T05:44:58.519Z,19.80
2018-03-11T05:47:25.965Z,16.20
2018-03-11T05:49:53.769Z,20.33
2018-03-11T05:52:21.205Z,24.27
2018-03-11T05:54:48.648Z,19.17
2018-03-11T05:57:16.125Z,26.40
2018-03-11T05:59:43.582Z,28.83
2018-03-11T06:02:11.077Z,28.40
2018-03-11T06:04:38.522Z,18.20
2018-03-11T06:07:05.967Z,28.63
2018-03-11T06:09:33.429Z,26.67
2018-03-11T06:12:00.916Z,24.73
2018-03-11T06:14:28.405Z,24.60
2018-03-11T06:16:55.878Z,22.43
2018-03-11T06:19:23.320Z,22.10
2018-03-11T06:21:50.798Z,19.57
2018-03-11T06:24:18.274Z,21.67
2018-03-11T06:26:45.905Z,19.63
2018-03-11T06:29:13.345Z,20.40
2018-03-11T06:31:40.793Z,22.10
2018-03-11T06:34:08.253Z,19.50
2018-03-11T06:36:35.734Z,21.53
2018-03-11T06:39:03.565Z,21.13
2018-03-11T06:41:31.013Z,22.40
2018-03-11T06:43:58.457Z,19.93
2018-03-11T06:46:25.926Z,19.70
2018-03-11T06:48:53.388Z,24.87
2018-03-11T06:51:21.121Z,20.10
2018-03-11T06:53:48.561Z,24.53
2018-03-11T06:56:16.009Z,23.80
2018-03-11T06:58:43.477Z,22.40
2018-03-11T07:01:10.925Z,19.10
2018-03-11T07:03:38.563Z,17.13
2018-03-11T07:06:06.015Z,17.40
2018-03-11T07:08:33.487Z,21.90
2018-03-11T07:11:00.978Z,19.33
2018-03-11T07:13:28.425Z,19.03
2018-03-11T07:15:56.022Z,16.57
2018-03-11T07:18:23.474Z,15.60
2018-03-11T07:20:50.925Z,22.30
2018-03-11T07:23:18.417Z,22.13
2018-03-11T07:25:45.869Z,25.67
2018-03-11T07:28:13.345Z,24.43
2018-03-11T07:30:40.881Z,24.57
2018-03-11T07:33:08.329Z,25.00
2018-03-11T07:35:35.809Z,23.43
2018-03-11T07:38:03.257Z,24.40
2018-03-11T07:40:30.746Z,24.17
2018-03-11T07:42:58.196Z,24.53
2018-03-11T07:45:25.666Z,25.20
2018-03-11T07:47:53.138Z,25.57
2018-03-11T07:50:20.581Z,25.00
2018-03-11T07:52:48.250Z,24.70
2018-03-11T07:55:15.697Z,25.17
2018-03-11T07:57:43.145Z,24.50
2018-03-11T08:00:10.617Z,25.17
2018-03-11T08:02:38.065Z,24.00
2018-03-11T08:05:05.810Z,28.80
2018-03-11T08:07:33.269Z,29.30
2018-03-11T08:10:00.721Z,26.20
2018-03-11T08:12:28.217Z,27.60
2018-03-11T08:14:55.692Z,28.63
2018-03-11T08:17:23.365Z,30.87
2018-03-11T08:19:50.837Z,28.20
2018-03-11T08:22:18.282Z,31.27
2018-03-11T08:24:45.760Z,26.00
2018-03-11T08:27:13.206Z,28.63
2018-03-11T08:29:40.686Z,28.57
2018-03-11T08:32:08.147Z,32.03
2018-03-11T08:34:35.593Z,28.93
2018-03-11T08:37:03.073Z,27.93
2018-03-11T08:39:30.652Z,25.87
2018-03-11T08:41:58.373Z,25.60
2018-03-11T08:44:25.833Z,24.33
2018-03-11T08:46:53.292Z,25.10
2018-03-11T08:49:20.761Z,26.40
2018-03-11T08:51:48.211Z,24.97
2018-03-11T08:54:16.121Z,26.33
2018-03-11T08:56:43.574Z,26.10
2018-03-11T08:59:11.046Z,27.50
2018-03-11T09:01:38.513Z,26.97
2018-03-11T09:04:05.965Z,25.70
2018-03-11T09:06:33.692Z,26.77
2018-03-11T09:09:01.150Z,27.23
2018-03-11T09:11:28.593Z,25.93
2018-03-11T09:13:56.061Z,26.60
2018-03-11T09:16:23.513Z,37.03
2018-03-11T09:18:51.224Z,27.87
2018-03-11T09:21:18.676Z,25.30
2018-03-11T09:23:46.129Z,28.53
2018-03-11T09:26:13.613Z,28.10
2018-03-11T09:28:41.075Z,27.27
2018-03-11T09:31:08.685Z,28.20
2018-03-11T09:33:36.153Z,31.27
2018-03-11T09:36:03.604Z,27.67
2018-03-11T09:38:31.086Z,27.87
2018-03-11T09:40:58.562Z,28.37
2018-03-11T09:43:26.242Z,30.00
2018-03-11T09:45:53.692Z,29.57
2018-03-11T09:48:21.149Z,29.03
2018-03-11T09:50:48.617Z,30.20
2018-03-11T09:53:16.077Z,28.07
2018-03-11T09:55:43.553Z,29.90
2018-03-11T09:58:11.029Z,27.37
2018-03-11T10:00:38.495Z,27.37
2018-03-11T10:03:05.970Z,27.90
2018-03-11T10:05:33.418Z,29.87
2018-03-11T10:08:01.250Z,27.93
2018-03-11T10:10:28.722Z,27.70
2018-03-11T10:12:56.386Z,28.40
2018-03-11T10:15:23.858Z,28.70
2018-03-11T10:17:51.309Z,28.17
2018-03-11T10:20:18.807Z,30.57
2018-03-11T10:22:46.257Z,31.70
2018-03-11T10:25:13.733Z,28.33
2018-03-11T10:27:41.201Z,29.83
2018-03-11T10:30:08.674Z,30.10
2018-03-11T10:32:36.546Z,27.63
2018-03-11T10:35:03.998Z,32.10
2018-03-11T10:37:31.455Z,31.77
2018-03-11T10:39:58.929Z,26.73
2018-03-11T10:42:26.385Z,30.00
2018-03-11T10:44:54.299Z,29.10
2018-03-11T10:47:21.755Z,25.60
2018-03-11T10:49:49.220Z,27.60
2018-03-11T10:52:16.689Z,27.50
2018-03-11T10:54:44.133Z,32.33
2018-03-11T10:57:11.717Z,35.77
2018-03-11T10:59:39.186Z,30.40
2018-03-11T11:02:12.327Z,32.53
2018-03-11T11:04:42.511Z,32.30
2018-03-11T11:07:09.961Z,22.97
2018-03-11T11:09:37.447Z,16.20
2018-03-11T11:12:04.912Z,17.17
2018-03-11T11:14:32.841Z,19.20
2018-03-11T11:17:00.290Z,18.80
2018-03-11T11:19:27.738Z,18.83
2018-03-11T11:21:55.454Z,17.30
2018-03-11T11:24:23.576Z,17.00
2018-03-11T11:26:51.230Z,20.10
2018-03-11T11:29:18.683Z,20.83
2018-03-11T11:31:46.137Z,20.20
2018-03-11T11:34:13.608Z,21.70
2018-03-11T11:36:41.077Z,22.63
2018-03-11T11:39:09.643Z,19.37
2018-03-11T11:41:37.100Z,17.13
2018-03-11T11:44:04.553Z,15.90
2018-03-11T11:46:32.027Z,15.90
2018-03-11T11:48:59.472Z,15.77
2018-03-11T11:51:27.045Z,15.80
2018-03-11T11:53:54.493Z,16.20
2018-03-11T11:56:21.950Z,13.27
2018-03-11T11:58:49.426Z,14.20
2018-03-11T12:01:16.873Z,11.93
2018-03-11T12:03:44.691Z,10.83
2018-03-11T12:06:12.148Z,11.80
2018-03-11T12:08:39.597Z,12.97
2018-03-11T12:11:07.080Z,15.80
2018-03-11T12:13:34.542Z,16.00
2018-03-11T12:16:02.042Z,16.07
2018-03-11T12:18:29.490Z,14.73
2018-03-11T12:20:57.033Z,18.00
2018-03-11T12:23:24.521Z,21.70
2018-03-11T12:25:51.977Z,19.57
2018-03-11T12:28:19.488Z,30.23
2018-03-11T12:30:46.935Z,26.80
2018-03-11T12:33:14.394Z,30.40
2018-03-11T12:35:41.899Z,31.27
2018-03-11T12:38:09.353Z,31.80
2018-03-11T12:40:37.205Z,31.93
2018-03-11T12:43:04.673Z,31.40
2018-03-11T12:45:32.120Z,36.47
2018-03-11T12:47:59.593Z,34.60
2018-03-11T12:50:27.089Z,32.70
2018-03-11T12:52:54.797Z,33.70
2018-03-11T12:55:22.365Z,35.40
2018-03-11T12:57:49.812Z,30.73
2018-03-11T13:00:17.301Z,31.63
2018-03-11T13:02:44.746Z,29.60
2018-03-11T13:05:12.349Z,30.87
2018-03-11T13:07:39.797Z,32.47
2018-03-11T13:10:07.250Z,32.50
2018-03-11T13:12:34.735Z,30.50
2018-03-11T13:15:02.185Z,31.93
2018-03-11T13:17:30.105Z,31.50
2018-03-11T13:20:09.406Z,31.20
2018-03-11T13:22:37.141Z,27.20
2018-03-11T13:25:04.601Z,24.47
2018-03-11T13:27:32.069Z,26.97
2018-03-11T13:29:59.594Z,27.13
2018-03-11T13:32:38.901Z,24.07
2018-03-11T13:35:06.397Z,21.93
2018-03-11T13:37:33.844Z,23.70
2018-03-11T13:40:13.145Z,20.77
2018-03-11T13:42:40.601Z,21.73
2018-03-11T13:45:19.977Z,22.73
2018-03-11T13:47:47.447Z,15.30
2018-03-11T13:50:14.901Z,12.50
2018-03-11T13:52:54.201Z,10.10
2018-03-11T13:55:21.641Z,9.20
2018-03-11T13:58:20.676Z,6.60
2018-03-11T14:00:48.114Z,6.67
2018-03-11T14:03:15.569Z,6.27
2018-03-11T14:05:43.029Z,5.80
2018-03-11T14:08:11.444Z,5.93
2018-03-11T14:10:38.917Z,5.87
2018-03-11T14:13:06.357Z,6.00
2018-03-11T14:15:33.797Z,5.53
2018-03-11T14:18:01.266Z,5.70
2018-03-11T14:20:28.717Z,4.57
2018-03-11T14:22:56.374Z,3.10
2018-03-11T14:25:23.835Z,3.77
2018-03-11T14:27:51.293Z,2.60
2018-03-11T14:30:18.767Z,2.80
2018-03-11T14:32:46.226Z,5.87
2018-03-11T14:35:13.926Z,7.73
2018-03-11T14:37:41.361Z,6.57
2018-03-11T14:40:08.809Z,7.40
2018-03-11T14:42:36.273Z,6.47
2018-03-11T14:45:03.752Z,6.63
2018-03-11T14:47:31.375Z,7.93
2018-03-11T14:49:58.815Z,7.70
2018-03-11T14:52:26.267Z,7.70
2018-03-11T14:54:53.733Z,6.87
2018-03-11T14:57:21.169Z,7.00
2018-03-11T14:59:48.642Z,8.27
2018-03-11T15:02:16.094Z,8.33
2018-03-11T15:04:43.538Z,7.80
2018-03-11T15:07:11.009Z,8.63
2018-03-11T15:09:38.469Z,8.83
2018-03-11T15:12:05.949Z,9.57
2018-03-11T15:14:33.400Z,10.60
2018-03-11T15:17:00.849Z,9.03
2018-03-11T15:19:28.305Z,8.63
2018-03-11T15:21:55.754Z,9.37
2018-03-11T15:24:23.226Z,9.30
2018-03-11T15:26:50.689Z,9.77
2018-03-11T15:29:18.126Z,8.00
2018-03-11T15:31:45.605Z,9.10
2018-03-11T15:34:13.047Z,8.70
2018-03-11T15:36:40.517Z,8.70
2018-03-11T15:39:07.957Z,7.93
2018-03-11T15:41:35.397Z,6.90
2018-03-11T15:44:02.873Z,8.57
2018-03-11T15:46:30.324Z,8.67
2018-03-11T15:48:58.017Z,9.87
2018-03-11T15:51:25.512Z,9.00
2018-03-11T15:53:52.974Z,9.77
2018-03-11T15:56:20.441Z,11.43
2018-03-11T15:58:47.886Z,9.57
2018-03-11T16:01:15.482Z,10.13
2018-03-11T16:03:42.943Z,9.77
2018-03-11T16:06:10.392Z,8.10
2018-03-11T16:08:37.882Z,10.77
2018-03-11T16:11:05.327Z,9.73
2018-03-11T16:13:33.024Z,9.47
2018-03-11T16:16:00.474Z,9.57
2018-03-11T16:18:27.925Z,10.00
2018-03-11T16:20:55.410Z,8.80
2018-03-11T16:23:22.857Z,10.40
2018-03-11T16:25:50.467Z,6.33
2018-03-11T16:28:17.917Z,6.60
2018-03-11T16:30:45.361Z,6.80
2018-03-11T16:33:12.845Z,6.77
2018-03-11T16:35:40.314Z,7.70
2018-03-11T16:38:07.809Z,8.10
2018-03-11T16:40:35.254Z,10.07
2018-03-11T16:43:02.714Z,21.27
2018-03-11T16:45:30.191Z,16.90
2018-03-11T16:47:57.643Z,19.83
2018-03-11T16:50:25.265Z,16.77
2018-03-11T16:52:52.754Z,15.43
2018-03-11T16:55:20.213Z,14.60
2018-03-11T16:57:47.679Z,9.07
2018-03-11T17:00:15.130Z,10.93
2018-03-11T17:02:42.603Z,8.57
2018-03-11T17:05:10.045Z,8.03
2018-03-11T17:07:37.485Z,7.67
2018-03-11T17:10:04.945Z,7.00
2018-03-11T17:12:32.418Z,6.90
2018-03-11T17:14:59.877Z,5.50
2018-03-11T17:17:27.338Z,6.03
2018-03-11T17:19:54.786Z,7.57
2018-03-11T17:22:22.264Z,6.83
2018-03-11T17:24:49.721Z,6.47
2018-03-11T17:27:17.240Z,7.87
2018-03-11T17:29:44.681Z,8.40
2018-03-11T17:32:12.131Z,10.00
2018-03-11T17:34:39.669Z,10.00
2018-03-11T17:37:07.140Z,10.90
2018-03-11T17:39:34.633Z,12.80
2018-03-11T17:42:02.082Z,13.17
2018-03-11T17:44:29.534Z,14.00
2018-03-11T17:46:57.011Z,14.40
2018-03-11T17:49:24.506Z,15.53
2018-03-11T17:51:52.113Z,14.40
2018-03-11T17:54:19.564Z,17.43
2018-03-11T17:56:47.081Z,17.97
2018-03-11T17:59:14.501Z,18.57
2018-03-11T18:01:41.953Z,17.97
2018-03-11T18:04:09.671Z,19.43
2018-03-11T18:06:37.133Z,19.40
2018-03-11T18:09:05.430Z,18.10
2018-03-11T18:11:32.918Z,19.87
2018-03-11T18:14:00.389Z,19.53
2018-03-11T18:16:28.093Z,19.27
2018-03-11T18:18:55.545Z,18.50
2018-03-11T18:21:22.994Z,17.60
2018-03-11T18:23:50.484Z,19.77
2018-03-11T18:26:17.970Z,18.97
2018-03-11T18:28:45.589Z,20.10
2018-03-11T18:31:13.068Z,18.60
2018-03-11T18:33:40.517Z,18.63
2018-03-11T18:36:07.991Z,17.50
2018-03-11T18:38:35.462Z,17.50
2018-03-11T18:41:02.942Z,19.10
2018-03-11T18:43:30.414Z,19.83
2018-03-11T18:45:57.858Z,19.30
2018-03-11T18:48:25.470Z,19.13
2018-03-11T18:50:53.853Z,19.60
2018-03-11T18:53:21.497Z,20.40
2018-03-11T18:55:48.945Z,20.77
2018-03-11T18:58:16.410Z,20.67
2018-03-11T19:00:43.901Z,20.80
2018-03-11T19:03:11.348Z,20.60
2018-03-11T19:05:38.837Z,20.10
2018-03-11T19:08:06.286Z,20.43
2018-03-11T19:10:36.538Z,20.50
2018-03-11T19:13:04.014Z,20.70
2018-03-11T19:15:31.465Z,18.90
2018-03-11T19:17:59.418Z,18.30
2018-03-11T19:20:26.881Z,22.53
2018-03-11T19:22:54.330Z,24.03
2018-03-11T19:25:21.814Z,26.83
2018-03-11T19:27:49.260Z,20.77
2018-03-11T19:30:16.766Z,20.40
2018-03-11T19:32:44.414Z,21.60
2018-03-11T19:35:11.862Z,19.47
2018-03-11T19:37:39.329Z,22.10
2018-03-11T19:40:06.805Z,20.40
2018-03-11T19:42:34.472Z,20.07
2018-03-11T19:45:01.938Z,21.20
2018-03-11T19:47:29.401Z,19.67
2018-03-11T19:49:56.876Z,20.07
2018-03-11T19:52:24.350Z,18.23
2018-03-11T19:54:52.138Z,21.33
2018-03-11T19:57:19.602Z,18.87
2018-03-11T19:59:47.054Z,20.13
2018-03-11T20:02:14.538Z,21.50
2018-03-11T20:04:41.986Z,22.90
2018-03-11T20:07:09.609Z,22.27
2018-03-11T20:09:37.061Z,20.80
2018-03-11T20:12:04.513Z,22.00
2018-03-11T20:14:31.988Z,22.80
2018-03-11T20:16:59.441Z,19.40
2018-03-11T20:19:27.183Z,19.03
2018-03-11T20:21:54.646Z,20.10
2018-03-11T20:24:22.094Z,22.50
2018-03-11T20:26:49.574Z,24.50
2018-03-11T20:29:17.040Z,23.60
2018-03-11T20:31:44.522Z,23.87
2018-03-11T20:34:11.988Z,19.83
2018-03-11T20:36:39.473Z,20.93
2018-03-11T20:39:07.077Z,21.43
2018-03-11T20:41:34.531Z,20.90
2018-03-11T20:44:02.016Z,22.13
2018-03-11T20:46:29.484Z,23.30
2018-03-11T20:48:56.950Z,24.17
2018-03-11T20:51:24.433Z,26.53
2018-03-11T20:53:51.891Z,28.73
2018-03-11T20:56:19.345Z,26.37
2018-03-11T20:58:47.446Z,26.40
2018-03-11T21:01:14.895Z,28.17
2018-03-11T21:03:42.353Z,30.93
2018-03-11T21:06:10.255Z,27.87
2018-03-11T21:08:37.706Z,28.10
2018-03-11T21:11:05.173Z,27.10
2018-03-11T21:13:32.643Z,31.60
2018-03-11T21:16:00.090Z,28.60
2018-03-11T21:18:27.767Z,29.20
2018-03-11T21:20:55.218Z,27.43
2018-03-11T21:23:22.674Z,28.13
2018-03-11T21:25:50.225Z,25.43
2018-03-11T21:28:17.670Z,25.97
2018-03-11T21:30:45.237Z,25.50
2018-03-11T21:33:12.688Z,25.33
2018-03-11T21:35:40.137Z,23.27
2018-03-11T21:38:07.624Z,24.83
2018-03-11T21:40:35.075Z,22.57
2018-03-11T21:43:02.558Z,25.50
2018-03-11T21:45:30.010Z,23.50
2018-03-11T21:47:57.457Z,23.57
2018-03-11T21:50:24.953Z,22.90
2018-03-11T21:52:52.397Z,22.87
2018-03-11T21:55:20.206Z,23.23
2018-03-11T21:57:47.656Z,21.83
2018-03-11T22:00:15.118Z,22.20
2018-03-11T22:02:42.586Z,23.30
2018-03-11T22:05:10.046Z,20.37
2018-03-11T22:07:37.541Z,23.13
2018-03-11T22:10:04.987Z,21.27
2018-03-11T22:12:32.446Z,21.27
2018-03-11T22:15:00.026Z,24.13
2018-03-11T22:17:27.473Z,24.30
2018-03-11T22:19:55.108Z,24.47
2018-03-11T22:22:22.553Z,22.90
2018-03-11T22:24:49.998Z,23.20
2018-03-11T22:27:17.482Z,22.10
2018-03-11T22:29:44.934Z,20.57
2018-03-11T22:32:12.607Z,24.90
2018-03-11T22:34:40.061Z,20.77
2018-03-11T22:37:07.501Z,20.90
2018-03-11T22:39:34.960Z,20.43
2018-03-11T22:42:02.409Z,20.60
2018-03-11T22:44:29.885Z,19.27
2018-03-11T22:46:57.341Z,19.00
2018-03-11T22:49:24.786Z,17.33
2018-03-11T22:51:52.278Z,17.87
2018-03-11T22:54:19.725Z,18.97
2018-03-11T22:56:47.348Z,21.37
2018-03-11T22:59:14.797Z,19.90
2018-03-11T23:01:42.234Z,17.50
2018-03-11T23:04:09.717Z,17.07
2018-03-11T23:06:37.162Z,15.73
2018-03-11T23:09:04.722Z,17.83
2018-03-11T23:11:32.208Z,19.80
2018-03-11T23:13:59.630Z,20.37
2018-03-11T23:16:27.102Z,19.10
2018-03-11T23:19:06.294Z,21.10
2018-03-11T23:21:33.765Z,23.60
2018-03-11T23:24:01.214Z,28.60
2018-03-11T23:26:28.694Z,27.93
2018-03-11T23:28:56.149Z,28.33
2018-03-11T23:31:23.601Z,28.87
2018-03-11T23:33:51.089Z,27.30
2018-03-11T23:36:18.551Z,25.80
2018-03-11T23:38:46.162Z,25.60
2018-03-11T23:41:13.613Z,26.97
2018-03-11T23:43:41.070Z,29.53
2018-03-11T23:46:08.541Z,29.30
2018-03-11T23:48:36.007Z,30.80
2018-03-11T23:51:03.669Z,29.00
2018-03-11T23:53:31.113Z,29.83
2018-03-11T23:55:58.576Z,29.33
2018-03-11T23:58:26.042Z,29.90
